createdAt,value
2018-11-10T00:01:18.503Z,10.00
2018-11-10T00:03:49.668Z,10.00
2018-11-10T00:06:20.994Z,9.90
2018-11-10T00:08:52.189Z,9.90
2018-11-10T00:11:23.374Z,9.90
2018-11-10T00:13:54.571Z,9.90
2018-11-10T00:16:25.591Z,9.90
2018-11-10T00:18:56.750Z,9.80
2018-11-10T00:21:27.947Z,9.80
2018-11-10T00:23:59.442Z,9.80
2018-11-10T00:26:30.742Z,9.80
2018-11-10T00:29:01.719Z,9.80
2018-11-10T00:31:32.758Z,9.70
2018-11-10T00:34:03.932Z,9.70
2018-11-10T00:36:35.390Z,9.70
2018-11-10T00:39:09.178Z,9.70
2018-11-10T00:41:40.447Z,9.80
2018-11-10T00:44:11.666Z,9.80
2018-11-10T00:46:42.881Z,9.80
2018-11-10T00:49:13.815Z,9.80
2018-11-10T00:51:45.025Z,9.80
2018-11-10T00:54:16.210Z,9.80
2018-11-10T00:56:47.424Z,9.80
2018-11-10T00:59:18.410Z,9.80
2018-11-10T01:01:49.504Z,9.80
2018-11-10T01:04:20.772Z,9.80
2018-11-10T01:06:51.999Z,9.80
2018-11-10T01:09:22.967Z,9.80
2018-11-10T01:11:54.454Z,9.80
2018-11-10T01:14:25.801Z,9.80
2018-11-10T01:16:56.914Z,9.90
2018-11-10T01:19:28.115Z,9.80
2018-11-10T01:21:59.347Z,9.80
2018-11-10T01:24:30.307Z,9.80
2018-11-10T01:27:01.562Z,9.80
2018-11-10T01:29:32.492Z,9.80
2018-11-10T01:32:03.730Z,9.80
2018-11-10T01:34:34.875Z,9.80
2018-11-10T01:37:06.337Z,9.80
2018-11-10T01:39:37.762Z,9.80
2018-11-10T01:42:08.887Z,9.80
2018-11-10T01:44:40.039Z,9.80
2018-11-10T01:47:11.262Z,9.90
2018-11-10T01:49:42.211Z,9.90
2018-11-10T01:52:13.423Z,9.90
2018-11-10T01:54:44.687Z,9.90
2018-11-10T01:57:16.156Z,9.90
2018-11-10T01:59:47.406Z,10.00
2018-11-10T02:02:18.623Z,10.00
2018-11-10T02:04:50.011Z,9.90
2018-11-10T02:07:21.158Z,10.00
2018-11-10T02:09:52.346Z,10.00
2018-11-10T02:12:23.543Z,9.90
2018-11-10T02:14:54.726Z,9.90
2018-11-10T02:17:25.923Z,9.80
2018-11-10T02:19:57.136Z,9.80
2018-11-10T02:22:28.224Z,9.80
2018-11-10T02:24:59.339Z,9.80
2018-11-10T02:27:30.855Z,9.80
2018-11-10T02:30:02.252Z,9.90
2018-11-10T02:32:33.475Z,9.90
2018-11-10T02:35:05.043Z,9.90
2018-11-10T02:37:36.634Z,9.90
2018-11-10T02:40:10.503Z,10.00
2018-11-10T02:42:41.847Z,10.00
2018-11-10T02:45:14.205Z,10.10
2018-11-10T02:47:45.946Z,10.10
2018-11-10T02:50:17.827Z,10.00
2018-11-10T02:52:49.127Z,10.00
2018-11-10T02:55:20.994Z,9.90
2018-11-10T02:57:52.355Z,9.80
2018-11-10T03:00:23.646Z,9.80
2018-11-10T03:02:54.851Z,9.80
2018-11-10T03:05:26.693Z,9.80
2018-11-10T03:07:57.650Z,9.90
2018-11-10T03:10:28.870Z,10.00
2018-11-10T03:14:03.039Z,10.10
2018-11-10T03:16:34.541Z,10.10
2018-11-10T03:19:06.219Z,10.20
2018-11-10T03:21:37.484Z,10.20
2018-11-10T03:24:08.558Z,10.20
2018-11-10T03:26:39.671Z,10.30
2018-11-10T03:29:10.676Z,10.30
2018-11-10T03:31:41.876Z,10.20
2018-11-10T03:34:13.057Z,10.20
2018-11-10T03:36:44.255Z,10.10
2018-11-10T03:39:15.443Z,10.20
2018-11-10T03:41:46.651Z,10.20
2018-11-10T03:44:17.806Z,10.30
2018-11-10T03:46:48.981Z,10.20
2018-11-10T03:49:20.737Z,10.10
2018-11-10T03:51:52.040Z,10.00
2018-11-10T03:54:23.177Z,9.90
2018-11-10T03:56:54.375Z,10.00
2018-11-10T03:59:25.411Z,10.00
2018-11-10T04:01:56.663Z,10.00
2018-11-10T04:04:28.004Z,10.00
2018-11-10T04:06:59.848Z,10.10
2018-11-10T04:09:31.247Z,10.10
2018-11-10T04:12:02.547Z,10.10
2018-11-10T04:14:33.507Z,10.10
2018-11-10T04:17:04.847Z,10.20
2018-11-10T04:19:36.142Z,10.30
2018-11-10T04:22:07.179Z,10.30
2018-11-10T04:24:38.278Z,10.20
2018-11-10T04:27:09.658Z,10.20
2018-11-10T04:29:40.909Z,10.20
2018-11-10T04:32:12.035Z,10.30
2018-11-10T04:34:43.064Z,10.20
2018-11-10T04:37:14.261Z,10.20
2018-11-10T04:39:45.423Z,10.20
2018-11-10T04:42:16.424Z,10.20
2018-11-10T04:44:47.614Z,10.10
2018-11-10T04:47:18.893Z,10.20
2018-11-10T04:49:50.218Z,10.20
2018-11-10T04:52:21.199Z,10.30
2018-11-10T04:54:52.395Z,10.30
2018-11-10T04:57:23.379Z,10.30
2018-11-10T04:59:54.378Z,10.30
2018-11-10T05:02:25.578Z,10.30
2018-11-10T05:04:56.791Z,10.20
2018-11-10T05:07:27.942Z,10.20
2018-11-10T05:09:59.649Z,10.20
2018-11-10T05:12:30.919Z,10.20
2018-11-10T05:15:02.119Z,10.30
2018-11-10T05:17:33.206Z,10.30
2018-11-10T05:20:04.684Z,10.30
2018-11-10T05:22:35.890Z,10.30
2018-11-10T05:25:07.816Z,10.10
2018-11-10T05:27:38.877Z,10.10
2018-11-10T05:30:10.751Z,10.10
2018-11-10T05:32:42.035Z,10.10
2018-11-10T05:35:13.241Z,10.10
2018-11-10T05:37:44.431Z,10.20
2018-11-10T05:40:15.635Z,10.20
2018-11-10T05:42:47.111Z,10.20
2018-11-10T05:45:18.188Z,10.20
2018-11-10T05:47:50.128Z,10.30
2018-11-10T05:50:21.360Z,10.30
2018-11-10T05:52:52.542Z,10.30
2018-11-10T05:55:23.559Z,10.30
2018-11-10T05:57:54.732Z,10.30
2018-11-10T06:00:25.955Z,10.30
2018-11-10T06:02:57.193Z,10.30
2018-11-10T06:05:28.817Z,10.30
2018-11-10T06:07:59.771Z,10.30
2018-11-10T06:10:31.193Z,10.30
2018-11-10T06:13:02.283Z,10.30
2018-11-10T06:15:33.492Z,10.20
2018-11-10T06:18:04.745Z,10.30
2018-11-10T06:20:35.882Z,10.30
2018-11-10T06:23:07.893Z,10.30
2018-11-10T06:25:39.034Z,10.30
2018-11-10T06:28:10.530Z,10.30
2018-11-10T06:30:41.825Z,10.30
2018-11-10T06:33:13.306Z,10.30
2018-11-10T06:35:44.586Z,10.20
2018-11-10T06:38:15.602Z,10.20
2018-11-10T06:40:46.789Z,10.20
2018-11-10T06:43:17.974Z,10.20
2018-11-10T06:45:49.156Z,10.10
2018-11-10T06:48:20.414Z,10.10
2018-11-10T06:50:51.783Z,10.10
2018-11-10T06:53:23.123Z,10.10
2018-11-10T06:55:54.319Z,10.10
2018-11-10T06:58:25.502Z,10.00
2018-11-10T07:00:56.513Z,10.00
2018-11-10T07:03:27.807Z,9.90
2018-11-10T07:05:58.923Z,9.90
2018-11-10T07:08:29.872Z,9.90
2018-11-10T07:11:01.859Z,9.90
2018-11-10T07:13:32.892Z,9.90
2018-11-10T07:16:04.117Z,10.00
2018-11-10T07:18:35.174Z,10.00
2018-11-10T07:21:06.709Z,10.10
2018-11-10T07:23:37.819Z,10.20
2018-11-10T07:26:09.033Z,10.30
2018-11-10T07:28:40.207Z,10.40
2018-11-10T07:31:11.402Z,10.40
2018-11-10T07:33:42.591Z,10.40
2018-11-10T07:36:13.607Z,10.40
2018-11-10T07:41:31.697Z,10.50
2018-11-10T07:44:02.918Z,10.60
2018-11-10T07:46:34.091Z,10.70
2018-11-10T07:49:05.489Z,10.80
2018-11-10T07:51:36.675Z,10.80
2018-11-10T07:54:07.935Z,10.90
2018-11-10T07:56:39.303Z,10.90
2018-11-10T07:59:10.431Z,11.00
2018-11-10T08:01:41.671Z,11.10
2018-11-10T08:04:12.727Z,11.20
2018-11-10T08:06:43.820Z,11.30
2018-11-10T08:09:15.008Z,11.50
2018-11-10T08:11:46.329Z,11.70
2018-11-10T08:14:17.387Z,11.80
2018-11-10T08:16:48.408Z,11.90
2018-11-10T08:19:20.339Z,12.00
2018-11-10T08:21:51.712Z,12.00
2018-11-10T08:24:23.214Z,12.10
2018-11-10T08:26:54.859Z,12.30
2018-11-10T08:29:26.081Z,12.40
2018-11-10T08:31:57.146Z,12.50
2018-11-10T08:34:28.306Z,12.60
2018-11-10T08:36:59.500Z,12.70
2018-11-10T08:39:30.691Z,12.90
2018-11-10T08:42:02.576Z,13.10
2018-11-10T08:44:33.857Z,13.30
2018-11-10T08:47:04.904Z,13.50
2018-11-10T08:49:36.213Z,13.70
2018-11-10T08:52:07.452Z,13.80
2018-11-10T08:54:38.470Z,13.70
2018-11-10T08:57:09.627Z,13.80
2018-11-10T08:59:40.839Z,14.00
2018-11-10T09:02:12.006Z,14.10
2018-11-10T09:04:43.459Z,14.20
2018-11-10T09:07:14.582Z,14.20
2018-11-10T09:09:46.164Z,14.40
2018-11-10T09:12:17.375Z,14.50
2018-11-10T09:14:48.387Z,14.70
2018-11-10T09:17:19.627Z,14.80
2018-11-10T09:19:51.266Z,14.80
2018-11-10T09:22:22.548Z,14.80
2018-11-10T09:24:53.726Z,14.80
2018-11-10T09:27:25.006Z,14.80
2018-11-10T09:29:56.299Z,14.80
2018-11-10T09:32:27.491Z,14.70
2018-11-10T09:35:07.075Z,14.80
2018-11-10T09:37:38.516Z,14.80
2018-11-10T09:40:13.810Z,14.90
2018-11-10T09:42:45.596Z,15.10
2018-11-10T09:45:18.058Z,15.30
2018-11-10T09:47:49.755Z,15.50
2018-11-10T09:50:22.809Z,15.70
2018-11-10T09:52:54.583Z,15.80
2018-11-10T09:55:25.856Z,15.80
2018-11-10T09:57:57.273Z,15.80
2018-11-10T10:00:29.140Z,15.80
2018-11-10T10:03:00.415Z,15.90
2018-11-10T10:05:31.639Z,15.80
2018-11-10T10:08:03.338Z,15.70
2018-11-10T10:10:34.559Z,15.70
2018-11-10T10:13:05.824Z,15.70
2018-11-10T10:15:37.180Z,15.90
2018-11-10T10:18:08.552Z,15.90
2018-11-10T10:20:40.208Z,16.10
2018-11-10T10:23:11.523Z,16.20
2018-11-10T10:25:42.924Z,16.20
2018-11-10T10:28:14.336Z,16.30
2018-11-10T10:30:45.707Z,16.40
2018-11-10T10:33:16.919Z,16.70
2018-11-10T10:35:48.454Z,16.90
2018-11-10T10:38:20.215Z,17.00
2018-11-10T10:40:51.670Z,17.40
2018-11-10T10:43:22.829Z,17.40
2018-11-10T10:45:54.237Z,17.50
2018-11-10T10:48:25.474Z,17.50
2018-11-10T10:50:57.061Z,17.60
2018-11-10T10:53:28.531Z,17.60
2018-11-10T10:55:59.823Z,17.80
2018-11-10T10:58:31.406Z,17.70
2018-11-10T11:01:07.419Z,17.50
2018-11-10T11:03:43.614Z,17.40
2018-11-10T11:06:14.754Z,17.50
2018-11-10T11:08:46.476Z,17.60
2018-11-10T11:11:17.913Z,17.50
2018-11-10T11:13:49.307Z,17.30
2018-11-10T11:16:20.724Z,17.10
2018-11-10T11:18:52.264Z,17.00
2018-11-10T11:21:23.854Z,16.90
2018-11-10T11:23:56.438Z,16.90
2018-11-10T11:26:28.592Z,16.80
2018-11-10T11:29:00.320Z,16.80
2018-11-10T11:31:31.419Z,16.80
2018-11-10T11:34:04.085Z,16.80
2018-11-10T11:36:35.372Z,16.80
2018-11-10T11:39:09.635Z,16.90
2018-11-10T11:41:41.352Z,16.90
2018-11-10T11:44:14.035Z,16.90
2018-11-10T11:46:45.244Z,16.90
2018-11-10T11:49:16.424Z,16.80
2018-11-10T11:51:47.836Z,16.80
2018-11-10T11:54:18.999Z,16.70
2018-11-10T11:56:50.202Z,16.60
2018-11-10T11:59:21.840Z,16.50
2018-11-10T12:01:53.270Z,16.50
2018-11-10T12:04:24.863Z,16.50
2018-11-10T12:06:56.138Z,16.60
2018-11-10T12:09:27.583Z,16.90
2018-11-10T12:11:58.756Z,17.00
2018-11-10T12:14:30.552Z,17.10
2018-11-10T12:17:01.973Z,17.20
2018-11-10T12:19:33.535Z,17.30
2018-11-10T12:22:05.106Z,17.20
2018-11-10T12:24:36.474Z,17.10
2018-11-10T12:27:08.261Z,17.00
2018-11-10T12:29:39.600Z,16.90
2018-11-10T12:32:11.059Z,17.00
2018-11-10T12:34:42.397Z,17.10
2018-11-10T12:37:13.883Z,17.10
2018-11-10T12:39:45.169Z,17.10
2018-11-10T12:42:16.530Z,17.00
2018-11-10T12:44:47.861Z,16.90
2018-11-10T12:47:18.972Z,16.80
2018-11-10T12:49:50.607Z,16.90
2018-11-10T12:52:21.789Z,17.00
2018-11-10T12:54:53.532Z,17.00
2018-11-10T12:57:25.083Z,17.30
2018-11-10T12:59:56.365Z,17.70
2018-11-10T13:02:27.546Z,18.00
2018-11-10T13:04:58.757Z,18.40
2018-11-10T13:07:31.021Z,18.60
2018-11-10T13:10:02.317Z,19.00
2018-11-10T13:12:33.498Z,18.80
2018-11-10T13:15:05.060Z,18.70
2018-11-10T13:17:36.615Z,18.40
2018-11-10T13:20:10.546Z,18.60
2018-11-10T13:22:41.815Z,18.50
2018-11-10T13:25:13.827Z,18.60
2018-11-10T13:27:44.965Z,18.70
2018-11-10T13:30:16.537Z,18.60
2018-11-10T13:32:47.743Z,18.80
2018-11-10T13:35:19.015Z,18.80
2018-11-10T13:37:50.676Z,18.70
2018-11-10T13:40:21.944Z,18.80
2018-11-10T13:42:54.400Z,18.90
2018-11-10T13:45:28.643Z,18.90
2018-11-10T13:47:59.638Z,19.00
2018-11-10T13:50:30.856Z,19.00
2018-11-10T13:53:03.311Z,19.00
2018-11-10T13:55:33.994Z,19.00
2018-11-10T13:58:05.267Z,18.90
2018-11-10T14:00:36.361Z,19.00
2018-11-10T14:03:07.582Z,19.00
2018-11-10T14:05:38.784Z,18.90
2018-11-10T14:08:10.780Z,18.80
2018-11-10T14:10:41.949Z,18.80
2018-11-10T14:13:12.927Z,18.70
2018-11-10T14:15:44.099Z,18.70
2018-11-10T14:18:15.335Z,18.60
2018-11-10T14:20:46.383Z,18.60
2018-11-10T14:23:18.183Z,18.60
2018-11-10T14:25:49.466Z,18.50
2018-11-10T14:28:20.604Z,18.40
2018-11-10T14:30:52.151Z,18.40
2018-11-10T14:33:23.287Z,18.30
2018-11-10T14:35:54.863Z,18.30
2018-11-10T14:38:26.013Z,18.10
2018-11-10T14:40:57.222Z,17.90
2018-11-10T14:43:28.210Z,17.70
2018-11-10T14:45:59.415Z,17.80
2018-11-10T14:48:30.577Z,17.80
2018-11-10T14:51:01.589Z,17.70
2018-11-10T14:53:32.862Z,17.60
2018-11-10T14:56:04.215Z,17.60
2018-11-10T14:58:35.502Z,17.40
2018-11-10T15:01:06.674Z,17.40
2018-11-10T15:03:37.950Z,17.50
2018-11-10T15:06:08.944Z,17.50
2018-11-10T15:08:40.147Z,17.40
2018-11-10T15:11:11.474Z,17.40
2018-11-10T15:13:42.698Z,17.50
2018-11-10T15:16:14.187Z,17.60
2018-11-10T15:18:45.287Z,17.60
2018-11-10T15:21:16.607Z,17.60
2018-11-10T15:23:47.728Z,17.60
2018-11-10T15:26:19.187Z,17.50
2018-11-10T15:28:50.495Z,17.40
2018-11-10T15:31:21.451Z,17.20
2018-11-10T15:33:52.631Z,17.10
2018-11-10T15:36:23.844Z,17.00
2018-11-10T15:38:54.815Z,16.90
2018-11-10T15:41:26.312Z,16.80
2018-11-10T15:43:57.722Z,16.70
2018-11-10T15:46:28.979Z,16.70
2018-11-10T15:49:00.300Z,16.60
2018-11-10T15:51:31.356Z,16.50
2018-11-10T15:54:02.364Z,16.40
2018-11-10T15:56:33.380Z,16.40
2018-11-10T15:59:04.444Z,16.40
2018-11-10T16:01:35.762Z,16.40
2018-11-10T16:04:07.172Z,16.30
2018-11-10T16:06:38.761Z,16.20
2018-11-10T16:09:12.592Z,16.20
2018-11-10T16:11:43.847Z,16.10
2018-11-10T16:14:15.030Z,16.00
2018-11-10T16:16:46.248Z,16.00
2018-11-10T16:19:17.456Z,15.90
2018-11-10T16:21:48.628Z,15.90
2018-11-10T16:24:19.824Z,15.90
2018-11-10T16:26:51.307Z,15.90
2018-11-10T16:29:22.630Z,15.90
2018-11-10T16:31:53.604Z,15.90
2018-11-10T16:34:24.827Z,15.80
2018-11-10T16:36:55.807Z,15.80
2018-11-10T16:39:26.971Z,15.80
2018-11-10T16:41:58.260Z,15.80
2018-11-10T16:44:29.554Z,15.70
2018-11-10T16:47:01.247Z,15.70
2018-11-10T16:49:32.450Z,15.70
2018-11-10T16:52:04.028Z,15.70
2018-11-10T16:54:35.288Z,15.60
2018-11-10T16:57:06.835Z,15.60
2018-11-10T16:59:37.887Z,15.50
2018-11-10T17:02:09.412Z,15.50
2018-11-10T17:04:40.690Z,15.50
2018-11-10T17:07:11.839Z,15.50
2018-11-10T17:09:43.337Z,15.50
2018-11-10T17:12:14.676Z,15.40
2018-11-10T17:14:45.802Z,15.40
2018-11-10T17:17:17.016Z,15.40
2018-11-10T17:19:47.995Z,15.40
2018-11-10T17:22:19.452Z,15.40
2018-11-10T17:24:50.574Z,15.40
2018-11-10T17:27:21.785Z,15.30
2018-11-10T17:29:53.139Z,15.30
2018-11-10T17:32:24.376Z,15.30
2018-11-10T17:34:55.573Z,15.30
2018-11-10T17:37:26.781Z,15.20
2018-11-10T17:39:57.924Z,15.30
2018-11-10T17:42:28.953Z,15.30
2018-11-10T17:45:00.615Z,15.30
2018-11-10T17:47:31.973Z,15.30
2018-11-10T17:50:03.332Z,15.30
2018-11-10T17:52:34.571Z,15.30
2018-11-10T17:55:05.698Z,15.30
2018-11-10T17:57:36.683Z,15.20
2018-11-10T18:00:08.107Z,15.20
2018-11-10T18:02:39.247Z,15.20
2018-11-10T18:05:13.496Z,15.20
2018-11-10T18:07:44.872Z,15.20
2018-11-10T18:10:17.443Z,15.20
2018-11-10T18:12:48.555Z,15.20
2018-11-10T18:15:19.551Z,15.20
2018-11-10T18:17:50.736Z,15.10
2018-11-10T18:20:22.238Z,15.10
2018-11-10T18:22:53.490Z,15.10
2018-11-10T18:25:25.006Z,15.10
2018-11-10T18:27:56.082Z,15.10
2018-11-10T18:30:27.140Z,15.00
2018-11-10T18:32:58.271Z,15.00
2018-11-10T18:35:29.267Z,15.00
2018-11-10T18:38:00.508Z,15.00
2018-11-10T18:40:31.648Z,15.00
2018-11-10T18:43:03.538Z,14.90
2018-11-10T18:45:34.632Z,14.90
2018-11-10T18:48:06.019Z,14.90
2018-11-10T18:50:37.220Z,14.90
2018-11-10T18:53:08.447Z,14.90
2018-11-10T18:55:39.777Z,14.80
2018-11-10T18:58:11.013Z,14.80
2018-11-10T19:00:42.246Z,14.80
2018-11-10T19:03:13.565Z,14.80
2018-11-10T19:05:44.756Z,14.80
2018-11-10T19:08:15.987Z,14.80
2018-11-10T19:10:47.965Z,14.80
2018-11-10T19:13:19.135Z,14.70
2018-11-10T19:16:52.803Z,14.70
2018-11-10T19:19:24.011Z,14.70
2018-11-10T19:21:55.207Z,14.70
2018-11-10T19:24:26.229Z,14.70
2018-11-10T19:26:57.469Z,14.70
2018-11-10T19:29:28.786Z,14.60
2018-11-10T19:31:59.933Z,14.50
2018-11-10T19:34:31.172Z,14.50
2018-11-10T19:37:02.372Z,14.50
2018-11-10T19:39:33.350Z,14.50
2018-11-10T19:42:04.393Z,14.50
2018-11-10T19:44:35.624Z,14.50
2018-11-10T19:47:06.663Z,14.50
2018-11-10T19:49:37.927Z,14.50
2018-11-10T19:52:09.324Z,14.50
2018-11-10T19:54:40.622Z,14.50
2018-11-10T19:57:12.586Z,14.50
2018-11-10T19:59:50.676Z,14.50
2018-11-10T20:02:21.783Z,14.50
2018-11-10T20:04:52.935Z,14.50
2018-11-10T20:07:23.996Z,14.50
2018-11-10T20:09:55.131Z,14.50
2018-11-10T20:12:26.531Z,14.50
2018-11-10T20:14:57.507Z,14.50
2018-11-10T20:17:28.764Z,14.50
2018-11-10T20:19:59.990Z,14.40
2018-11-10T20:22:32.716Z,14.40
2018-11-10T20:25:03.888Z,14.50
2018-11-10T20:27:35.053Z,14.50
2018-11-10T20:30:08.670Z,14.50
2018-11-10T20:32:39.903Z,14.50
2018-11-10T20:35:12.219Z,14.40
2018-11-10T20:37:43.966Z,14.50
2018-11-10T20:40:15.704Z,14.50
2018-11-10T20:42:46.735Z,14.50
2018-11-10T20:45:20.940Z,14.60
2018-11-10T20:47:52.055Z,14.50
2018-11-10T20:50:23.307Z,14.50
2018-11-10T20:52:54.235Z,14.50
2018-11-10T20:55:28.148Z,14.50
2018-11-10T20:57:59.913Z,14.40
2018-11-10T21:00:41.785Z,14.40
2018-11-10T21:03:14.867Z,14.50
2018-11-10T21:05:46.410Z,14.50
2018-11-10T21:08:17.774Z,14.50
2018-11-10T21:10:49.123Z,14.50
2018-11-10T21:13:20.354Z,14.50
2018-11-10T21:15:51.766Z,14.50
2018-11-10T21:18:23.067Z,14.60
2018-11-10T21:20:54.353Z,14.60
2018-11-10T21:23:25.965Z,14.50
2018-11-10T21:25:57.539Z,14.50
2018-11-10T21:28:28.851Z,14.50
2018-11-10T21:31:00.215Z,14.50
2018-11-10T21:33:31.469Z,14.50
2018-11-10T21:36:02.639Z,14.50
2018-11-10T21:38:33.771Z,14.50
2018-11-10T21:41:04.982Z,14.50
2018-11-10T21:43:36.191Z,14.50
2018-11-10T21:46:07.818Z,14.40
2018-11-10T21:48:39.163Z,14.40
2018-11-10T21:51:10.419Z,14.40
2018-11-10T21:53:41.747Z,14.30
2018-11-10T21:56:13.407Z,14.20
2018-11-10T21:58:44.694Z,14.10
2018-11-10T22:01:15.884Z,14.20
2018-11-10T22:03:47.066Z,14.30
2018-11-10T22:06:19.140Z,14.30
2018-11-10T22:08:50.492Z,14.20
2018-11-10T22:11:21.447Z,14.20
2018-11-10T22:13:52.647Z,14.10
2018-11-10T22:16:23.826Z,14.10
2018-11-10T22:18:55.030Z,14.10
2018-11-10T22:21:26.248Z,13.90
2018-11-10T22:23:57.904Z,14.00
2018-11-10T22:26:29.188Z,14.00
2018-11-10T22:29:00.371Z,14.00
2018-11-10T22:31:31.909Z,14.00
2018-11-10T22:34:03.466Z,14.10
2018-11-10T22:36:34.551Z,14.10
2018-11-10T22:39:07.306Z,14.20
2018-11-10T22:41:38.307Z,14.30
2018-11-10T22:44:09.329Z,14.30
2018-11-10T22:46:40.492Z,14.30
2018-11-10T22:49:11.739Z,14.30
2018-11-10T22:51:42.943Z,14.30
2018-11-10T22:54:14.262Z,14.30
2018-11-10T22:56:45.456Z,14.30
2018-11-10T22:59:16.523Z,14.10
2018-11-10T23:01:48.469Z,14.00
2018-11-10T23:04:19.416Z,13.90
2018-11-10T23:06:50.647Z,13.80
2018-11-10T23:09:21.820Z,13.90
2018-11-10T23:11:53.003Z,14.00
2018-11-10T23:14:24.260Z,13.80
2018-11-10T23:16:55.942Z,13.80
2018-11-10T23:19:26.958Z,13.70
2018-11-10T23:21:58.017Z,13.70
2018-11-10T23:24:29.157Z,13.80
2018-11-10T23:27:00.344Z,13.80
2018-11-10T23:29:31.344Z,13.60
2018-11-10T23:32:02.951Z,13.60
2018-11-10T23:34:33.920Z,13.70
2018-11-10T23:37:05.416Z,13.60
2018-11-10T23:39:36.703Z,13.70
2018-11-10T23:42:07.898Z,13.90
2018-11-10T23:44:39.082Z,13.90
2018-11-10T23:47:10.271Z,13.80
2018-11-10T23:49:41.880Z,13.70
2018-11-10T23:52:13.599Z,13.60
2018-11-10T23:54:44.906Z,13.40
2018-11-10T23:57:16.025Z,13.30
2018-11-10T23:59:47.912Z,13.30
